首页
METAR-TAF:

METAR-TAF

机场 :

Duplin County Airport

Kenansville, 北卡罗来纳州, 美国

纬度: 35-00-00N, 经度: 077-58-54W, 海拔: 42米

当前天气观测

该预报发布于23分钟前的20:35 UTC
风速8节,风向西
温度 31°C
湿度 63%
气压 1012 hPa
能見度: 16.1公里
散云层高于3600英尺
散云层高于4400英尺

METAR: KDPL 062035Z AUTO 26008KT 10SM SCT036 SCT044 31/23 A2988 RMK AO2

时间: 16:58 (20:58 UTC)


TAF: 丢失

超过4000个机场的气象观测和天气预报(METAR&TAF报告)。

可查询的气象台以黄色和红色小点在地图上表示。

将鼠标移到小点上方,可查看气象台名称。

然后点击查看天气观测和预报。

如需切换地图:点击带黑十字的绿色按钮放大地图;点击带横线的绿色按钮缩小地图;或者点击绿色箭头查看邻近地区的地图。


METAR-TAF: